Flight Track Log - Related Links

Times and Time Zones

All times are in EDT time to prevent confusion due to time zone crossing. See the N860BA flight status page for this flight to view local times or setup timezone preferences in your user account.

Time Position Orientation Groundspeed Altitude Reporting Facility
EDT Latitude Longitude Course Direction KTS MPH feet Rate Location/Type
Wed 10:02:33 AM 40.8667 -74.0500 323° Northwest 148 170 900  Level New York TRACON
Wed 10:03:33 AM 40.9000 -74.0833 323° Northwest 235 270 2,700 2,521 Climbing New York TRACON
Wed 10:04:32 AM 40.8833 -74.1833 258° West 263 303 5,900 1,650 Climbing New York TRACON
Wed 10:05:33 AM 40.9333 -74.2500 315° West 291 335 6,000 50 Climbing New York TRACON
Wed 10:06:33 AM 41.0000 -74.2167 21° North 301 346 6,000 450 Level New York TRACON
Wed 10:07:33 AM 41.0833 -74.1667 24° Northeast 300 345 6,900 1,344 Climbing New York TRACON
Wed 10:08:38 AM 41.1333 -74.0833 51° Northeast 295 339 8,800 1,800 Climbing New York TRACON
Wed 10:09:33 AM 41.1667 -73.9833 66° East 305 351 10,500 1,461 Climbing New York TRACON
Wed 10:10:33 AM 41.2000 -73.8667 69° East 358 412 11,600 1,200 Climbing New York TRACON
Wed 10:11:33 AM 41.2333 -73.7333 72° East 398 458 12,900 820 Climbing New York TRACON
Wed 10:13:14 AM 41.2908 -73.5008 72° East 436 502 13,800 704 Climbing Boston Center
Wed 10:14:15 AM 41.3256 -73.3633 71° East 430 495 14,800 595 Climbing Boston Center
Wed 10:15:15 AM 41.3683 -73.1953 71° East 428 493 15,000 102 Climbing Boston Center
Wed 10:16:13 AM 41.4192 -73.0575 64° Northeast 444 511 15,000 51 Level Boston Center
Wed 10:17:12 AM 41.4928 -72.8944 59° Northeast 459 528 15,100 50 Climbing Boston Center
Wed 10:18:13 AM 41.5517 -72.7564 60° Northeast 464 534 15,100  Level Boston Center
Wed 10:19:13 AM 41.6250 -72.5900 59° Northeast 464 534 15,100 -298 Level Boston Center
Wed 10:20:14 AM 41.7003 -72.4819 47° Northeast 457 526 14,500 -957 Descending Boston Center
Wed 10:20:47 AM 41.7628 -72.4178 37° Northeast 406 467 13,600 -1,652 Descending Boston Center
Wed 10:21:23 AM 41.8086 -72.3678 39° Northeast 389 448 12,600 -1,705 Descending Boston Center
Wed 10:22:15 AM 41.8814 -72.2839 41° Northeast 393 452 11,100 -1,129 Descending Boston Center
Wed 10:22:48 AM 41.9314 -72.2281 40° Northeast 389 448 11,000 -400 Descending Boston Center
Wed 10:23:15 AM 41.9667 -72.1889 40° Northeast 387 445 10,700 -1,182 Descending Boston Center
Wed 10:23:54 AM 42.0144 -72.1300 42° Northeast 360 414 9,700 -1,600 Descending Boston Center
Wed 10:24:15 AM 42.0394 -72.1047 37° Northeast 359 413 9,100 -1,964 Descending Boston Center
Wed 10:24:49 AM 42.0831 -72.0681 32° Northeast 311 358 7,900 -2,172 Descending Boston Center
Wed 10:25:13 AM 42.1142 -72.0456 28° Northeast 324 373 7,000 -2,400 Descending Boston Center
Wed 10:25:34 AM 42.1411 -72.0342 17° North 287 330 6,100 -2,361 Descending Boston Center
Wed 10:26:14 AM 42.1892 -72.0086 22° Northeast 295 339 4,600 -1,869 Descending Boston Center
Wed 10:26:35 AM 42.2161 -71.9972 17° North 280 322 4,200 -500 Descending Boston Center
Wed 10:27:14 AM 42.2472 -71.9464 50° Northeast 274 315 4,100 -60 Descending Boston Center
Wed 10:28:15 AM 42.2906 -71.8675 53° Northeast 268 308 4,100  Level Boston Center
Wed 10:29:12 AM 42.3442 -71.7717 53° Northeast 279 321 4,100  Level Boston Center
Wed 10:30:14 AM 42.3939 -71.6894 51° Northeast 284 327 4,100  Level Boston Center
Wed 10:31:15 AM 42.4433 -71.6100 50° Northeast 279 321 4,100 -247 Level Boston Center
Wed 10:31:51 AM 42.4833 -71.5500 48° Northeast 277 319 3,700 -625 Descending KA90
Wed 10:32:51 AM 42.5167 -71.4833 56° Northeast 273 314 3,100 -300 Descending KA90
Wed 10:33:51 AM 42.5500 -71.4000 61° Northeast 253 291 3,100  Level KA90
Wed 10:35:03 AM 42.5667 -71.2667 80° East 275 316 3,100 -91 Level KA90
Wed 10:36:03 AM 42.5667 -71.1667 90° East 268 308 2,900 -600 Descending KA90
Wed 10:37:03 AM 42.5333 -71.0833 118° Southeast 240 276 1,900 -500 Descending KA90
Wed 10:38:03 AM 42.4833 -71.0667 166° South 189 217 1,900  Level KA90
Wed 10:39:03 AM 42.4500 -71.1167 228° Southwest 198 228 1,900 -158 Level KA90
Wed 10:39:57 AM 42.4667 -71.1833 289° West 162 186 1,600 -574 Descending KA90
Wed 10:40:58 AM 42.4667 -71.2333 270° West 149 171 800 -787 Descending KA90

Login

Don't have an account? Register now (free) for customized features, flight alerts, and more!